sensor_id;sensor_type;location;lat;lon;timestamp;P1;durP1;ratioP1;P2;durP2;ratioP2
1344;SDS011;15375;48.540;9.268;2023-06-22T00:00:50;11.90;;;10.80;;
1344;SDS011;15375;48.540;9.268;2023-06-22T00:03:17;12.17;;;10.97;;
1344;SDS011;15375;48.540;9.268;2023-06-22T00:05:43;12.83;;;11.60;;
1344;SDS011;15375;48.540;9.268;2023-06-22T00:08:10;11.83;;;10.37;;
1344;SDS011;15375;48.540;9.268;2023-06-22T00:10:35;11.60;;;10.50;;
1344;SDS011;15375;48.540;9.268;2023-06-22T00:13:00;15.13;;;10.53;;
1344;SDS011;15375;48.540;9.268;2023-06-22T00:15:26;11.63;;;10.63;;
1344;SDS011;15375;48.540;9.268;2023-06-22T00:17:51;11.87;;;10.67;;
1344;SDS011;15375;48.540;9.268;2023-06-22T00:20:17;14.77;;;11.27;;
1344;SDS011;15375;48.540;9.268;2023-06-22T00:22:45;13.60;;;10.53;;
1344;SDS011;15375;48.540;9.268;2023-06-22T00:25:11;11.23;;;10.00;;
1344;SDS011;15375;48.540;9.268;2023-06-22T00:27:36;12.37;;;10.40;;
1344;SDS011;15375;48.540;9.268;2023-06-22T00:30:02;11.87;;;10.47;;
1344;SDS011;15375;48.540;9.268;2023-06-22T00:32:28;14.67;;;11.73;;
1344;SDS011;15375;48.540;9.268;2023-06-22T00:34:53;12.93;;;11.63;;
1344;SDS011;15375;48.540;9.268;2023-06-22T00:37:19;11.87;;;10.30;;
1344;SDS011;15375;48.540;9.268;2023-06-22T00:39:44;10.97;;;9.90;;
1344;SDS011;15375;48.540;9.268;2023-06-22T00:42:09;14.27;;;9.67;;
1344;SDS011;15375;48.540;9.268;2023-06-22T00:44:35;10.40;;;9.50;;
1344;SDS011;15375;48.540;9.268;2023-06-22T00:47:01;12.10;;;10.80;;
1344;SDS011;15375;48.540;9.268;2023-06-22T00:49:27;12.80;;;10.60;;
1344;SDS011;15375;48.540;9.268;2023-06-22T00:51:53;11.73;;;10.50;;
1344;SDS011;15375;48.540;9.268;2023-06-22T00:54:19;13.17;;;11.27;;
1344;SDS011;15375;48.540;9.268;2023-06-22T00:56:55;12.40;;;11.23;;
1344;SDS011;15375;48.540;9.268;2023-06-22T00:59:23;13.60;;;10.40;;
1344;SDS011;15375;48.540;9.268;2023-06-22T01:01:49;12.47;;;10.30;;
1344;SDS011;15375;48.540;9.268;2023-06-22T01:04:14;11.60;;;10.43;;
1344;SDS011;15375;48.540;9.268;2023-06-22T01:07:17;13.40;;;10.27;;
1344;SDS011;15375;48.540;9.268;2023-06-22T01:09:32;12.40;;;9.13;;
1344;SDS011;15375;48.540;9.268;2023-06-22T01:12:05;14.03;;;8.80;;
1344;SDS011;15375;48.540;9.268;2023-06-22T01:14:36;9.77;;;8.80;;
1344;SDS011;15375;48.540;9.268;2023-06-22T01:17:07;10.63;;;8.83;;
1344;SDS011;15375;48.540;9.268;2023-06-22T01:19:39;13.53;;;11.87;;
1344;SDS011;15375;48.540;9.268;2023-06-22T01:22:12;11.20;;;10.00;;
1344;SDS011;15375;48.540;9.268;2023-06-22T01:25:26;13.73;;;11.03;;
1344;SDS011;15375;48.540;9.268;2023-06-22T01:27:36;13.53;;;11.37;;
1344;SDS011;15375;48.540;9.268;2023-06-22T01:30:12;15.23;;;11.93;;
1344;SDS011;15375;48.540;9.268;2023-06-22T01:32:41;13.43;;;12.03;;
1344;SDS011;15375;48.540;9.268;2023-06-22T01:35:08;12.40;;;10.87;;
1344;SDS011;15375;48.540;9.268;2023-06-22T01:37:35;14.20;;;12.40;;
1344;SDS011;15375;48.540;9.268;2023-06-22T01:40:02;13.63;;;12.23;;
1344;SDS011;15375;48.540;9.268;2023-06-22T01:42:30;12.57;;;11.33;;
1344;SDS011;15375;48.540;9.268;2023-06-22T01:44:56;13.37;;;11.97;;
1344;SDS011;15375;48.540;9.268;2023-06-22T01:47:24;13.47;;;12.07;;
1344;SDS011;15375;48.540;9.268;2023-06-22T01:49:50;13.20;;;11.07;;
1344;SDS011;15375;48.540;9.268;2023-06-22T01:52:19;11.40;;;10.33;;
1344;SDS011;15375;48.540;9.268;2023-06-22T01:54:46;10.50;;;9.50;;
1344;SDS011;15375;48.540;9.268;2023-06-22T01:57:11;12.40;;;9.27;;
1344;SDS011;15375;48.540;9.268;2023-06-22T02:02:08;10.13;;;9.00;;
1344;SDS011;15375;48.540;9.268;2023-06-22T02:04:47;11.30;;;10.10;;
1344;SDS011;15375;48.540;9.268;2023-06-22T02:07:14;12.30;;;10.83;;
1344;SDS011;15375;48.540;9.268;2023-06-22T02:09:43;11.80;;;9.37;;
1344;SDS011;15375;48.540;9.268;2023-06-22T02:12:11;14.20;;;10.77;;
1344;SDS011;15375;48.540;9.268;2023-06-22T02:14:39;11.93;;;10.70;;
1344;SDS011;15375;48.540;9.268;2023-06-22T02:17:05;12.57;;;9.33;;
1344;SDS011;15375;48.540;9.268;2023-06-22T02:19:36;12.70;;;8.80;;
1344;SDS011;15375;48.540;9.268;2023-06-22T02:22:03;11.53;;;10.43;;
1344;SDS011;15375;48.540;9.268;2023-06-22T02:24:28;13.07;;;11.37;;
1344;SDS011;15375;48.540;9.268;2023-06-22T02:26:57;12.80;;;10.80;;
1344;SDS011;15375;48.540;9.268;2023-06-22T02:29:23;14.17;;;12.23;;
1344;SDS011;15375;48.540;9.268;2023-06-22T02:31:48;12.33;;;10.93;;
1344;SDS011;15375;48.540;9.268;2023-06-22T02:34:14;11.80;;;10.50;;
1344;SDS011;15375;48.540;9.268;2023-06-22T02:36:43;12.87;;;10.87;;
1344;SDS011;15375;48.540;9.268;2023-06-22T02:39:16;15.00;;;12.70;;
1344;SDS011;15375;48.540;9.268;2023-06-22T02:41:51;15.23;;;13.83;;
1344;SDS011;15375;48.540;9.268;2023-06-22T02:44:17;13.60;;;12.23;;
1344;SDS011;15375;48.540;9.268;2023-06-22T02:46:43;14.83;;;11.43;;
1344;SDS011;15375;48.540;9.268;2023-06-22T02:49:10;11.10;;;9.90;;
1344;SDS011;15375;48.540;9.268;2023-06-22T02:51:37;11.87;;;10.40;;
1344;SDS011;15375;48.540;9.268;2023-06-22T02:54:04;11.37;;;10.17;;
1344;SDS011;15375;48.540;9.268;2023-06-22T02:56:30;12.67;;;10.10;;
1344;SDS011;15375;48.540;9.268;2023-06-22T02:58:55;10.13;;;9.10;;
1344;SDS011;15375;48.540;9.268;2023-06-22T03:01:25;11.10;;;9.90;;
1344;SDS011;15375;48.540;9.268;2023-06-22T03:03:52;10.50;;;9.40;;
1344;SDS011;15375;48.540;9.268;2023-06-22T03:06:18;10.43;;;9.43;;
1344;SDS011;15375;48.540;9.268;2023-06-22T03:08:47;11.30;;;10.20;;
1344;SDS011;15375;48.540;9.268;2023-06-22T03:11:13;15.67;;;10.80;;
1344;SDS011;15375;48.540;9.268;2023-06-22T03:13:38;11.40;;;9.70;;
1344;SDS011;15375;48.540;9.268;2023-06-22T03:16:04;14.63;;;9.30;;
1344;SDS011;15375;48.540;9.268;2023-06-22T03:18:29;12.90;;;11.03;;
1344;SDS011;15375;48.540;9.268;2023-06-22T03:20:54;12.33;;;10.00;;
1344;SDS011;15375;48.540;9.268;2023-06-22T03:23:20;11.63;;;10.53;;
1344;SDS011;15375;48.540;9.268;2023-06-22T03:25:45;10.13;;;9.23;;
1344;SDS011;15375;48.540;9.268;2023-06-22T03:28:10;10.57;;;8.80;;
1344;SDS011;15375;48.540;9.268;2023-06-22T03:30:36;11.50;;;10.40;;
1344;SDS011;15375;48.540;9.268;2023-06-22T03:33:01;14.53;;;8.70;;
1344;SDS011;15375;48.540;9.268;2023-06-22T03:35:26;12.43;;;10.43;;
1344;SDS011;15375;48.540;9.268;2023-06-22T03:37:52;12.83;;;8.87;;
1344;SDS011;15375;48.540;9.268;2023-06-22T03:40:17;12.70;;;9.50;;
1344;SDS011;15375;48.540;9.268;2023-06-22T03:42:43;9.50;;;8.63;;
1344;SDS011;15375;48.540;9.268;2023-06-22T03:45:08;13.23;;;9.67;;
1344;SDS011;15375;48.540;9.268;2023-06-22T03:47:34;11.10;;;9.20;;
1344;SDS011;15375;48.540;9.268;2023-06-22T03:49:59;10.00;;;8.60;;
1344;SDS011;15375;48.540;9.268;2023-06-22T03:52:25;13.50;;;8.73;;
1344;SDS011;15375;48.540;9.268;2023-06-22T03:54:50;11.47;;;10.23;;
1344;SDS011;15375;48.540;9.268;2023-06-22T03:57:16;15.00;;;10.40;;
1344;SDS011;15375;48.540;9.268;2023-06-22T03:59:41;11.93;;;10.50;;
1344;SDS011;15375;48.540;9.268;2023-06-22T04:02:06;10.57;;;9.60;;
1344;SDS011;15375;48.540;9.268;2023-06-22T04:04:32;10.63;;;9.50;;
1344;SDS011;15375;48.540;9.268;2023-06-22T04:06:58;16.90;;;9.80;;
1344;SDS011;15375;48.540;9.268;2023-06-22T04:09:24;10.87;;;9.30;;
1344;SDS011;15375;48.540;9.268;2023-06-22T04:11:49;12.63;;;7.87;;
1344;SDS011;15375;48.540;9.268;2023-06-22T04:14:14;11.37;;;10.17;;
1344;SDS011;15375;48.540;9.268;2023-06-22T04:16:40;9.93;;;8.90;;
1344;SDS011;15375;48.540;9.268;2023-06-22T04:19:05;11.40;;;9.67;;
1344;SDS011;15375;48.540;9.268;2023-06-22T04:21:31;16.67;;;10.07;;
1344;SDS011;15375;48.540;9.268;2023-06-22T04:23:56;10.40;;;8.93;;
1344;SDS011;15375;48.540;9.268;2023-06-22T04:26:21;9.20;;;8.30;;
1344;SDS011;15375;48.540;9.268;2023-06-22T04:28:47;11.63;;;8.43;;
1344;SDS011;15375;48.540;9.268;2023-06-22T04:31:17;15.10;;;9.53;;
1344;SDS011;15375;48.540;9.268;2023-06-22T04:33:44;10.80;;;8.73;;
1344;SDS011;15375;48.540;9.268;2023-06-22T04:36:10;8.93;;;8.13;;
1344;SDS011;15375;48.540;9.268;2023-06-22T04:38:48;10.07;;;9.10;;
1344;SDS011;15375;48.540;9.268;2023-06-22T04:41:14;12.30;;;9.97;;
1344;SDS011;15375;48.540;9.268;2023-06-22T04:43:48;10.50;;;9.27;;
1344;SDS011;15375;48.540;9.268;2023-06-22T04:46:18;10.77;;;9.80;;
1344;SDS011;15375;48.540;9.268;2023-06-22T04:48:44;12.93;;;9.93;;
1344;SDS011;15375;48.540;9.268;2023-06-22T04:51:09;10.10;;;9.03;;
1344;SDS011;15375;48.540;9.268;2023-06-22T04:53:35;10.00;;;8.47;;
1344;SDS011;15375;48.540;9.268;2023-06-22T04:56:01;11.53;;;10.30;;
1344;SDS011;15375;48.540;9.268;2023-06-22T04:58:29;13.70;;;10.00;;
1344;SDS011;15375;48.540;9.268;2023-06-22T05:00:57;15.77;;;11.30;;
1344;SDS011;15375;48.540;9.268;2023-06-22T05:03:24;11.60;;;10.50;;
1344;SDS011;15375;48.540;9.268;2023-06-22T05:05:51;11.10;;;10.00;;
1344;SDS011;15375;48.540;9.268;2023-06-22T05:08:17;15.03;;;10.97;;
1344;SDS011;15375;48.540;9.268;2023-06-22T05:10:42;18.40;;;11.23;;
1344;SDS011;15375;48.540;9.268;2023-06-22T05:13:08;12.73;;;10.90;;
1344;SDS011;15375;48.540;9.268;2023-06-22T05:15:33;12.93;;;11.53;;
1344;SDS011;15375;48.540;9.268;2023-06-22T05:18:04;14.17;;;12.67;;
1344;SDS011;15375;48.540;9.268;2023-06-22T05:20:30;12.93;;;11.50;;
1344;SDS011;15375;48.540;9.268;2023-06-22T05:22:55;16.63;;;11.80;;
1344;SDS011;15375;48.540;9.268;2023-06-22T05:25:21;14.60;;;11.30;;
1344;SDS011;15375;48.540;9.268;2023-06-22T05:27:46;13.13;;;11.73;;
1344;SDS011;15375;48.540;9.268;2023-06-22T05:30:12;12.40;;;11.20;;
1344;SDS011;15375;48.540;9.268;2023-06-22T05:32:37;13.77;;;11.40;;
1344;SDS011;15375;48.540;9.268;2023-06-22T05:35:03;11.27;;;10.27;;
1344;SDS011;15375;48.540;9.268;2023-06-22T05:37:29;12.00;;;10.80;;
1344;SDS011;15375;48.540;9.268;2023-06-22T05:39:55;13.33;;;11.93;;
1344;SDS011;15375;48.540;9.268;2023-06-22T05:42:21;13.60;;;10.10;;
1344;SDS011;15375;48.540;9.268;2023-06-22T05:44:46;12.60;;;10.93;;
1344;SDS011;15375;48.540;9.268;2023-06-22T05:47:12;13.60;;;11.70;;
1344;SDS011;15375;48.540;9.268;2023-06-22T05:49:37;12.57;;;11.47;;
1344;SDS011;15375;48.540;9.268;2023-06-22T05:52:03;12.23;;;11.07;;
1344;SDS011;15375;48.540;9.268;2023-06-22T05:54:29;16.57;;;11.40;;
1344;SDS011;15375;48.540;9.268;2023-06-22T05:56:54;11.50;;;10.37;;
1344;SDS011;15375;48.540;9.268;2023-06-22T05:59:19;12.53;;;11.43;;
1344;SDS011;15375;48.540;9.268;2023-06-22T06:01:45;12.23;;;11.03;;
1344;SDS011;15375;48.540;9.268;2023-06-22T06:04:14;13.17;;;10.97;;
1344;SDS011;15375;48.540;9.268;2023-06-22T06:06:41;10.87;;;9.77;;
1344;SDS011;15375;48.540;9.268;2023-06-22T06:09:06;10.83;;;9.93;;
1344;SDS011;15375;48.540;9.268;2023-06-22T06:11:32;11.97;;;10.87;;
1344;SDS011;15375;48.540;9.268;2023-06-22T06:13:58;11.50;;;10.50;;
1344;SDS011;15375;48.540;9.268;2023-06-22T06:16:23;10.87;;;9.77;;
1344;SDS011;15375;48.540;9.268;2023-06-22T06:18:48;11.07;;;9.77;;
1344;SDS011;15375;48.540;9.268;2023-06-22T06:21:15;11.90;;;10.37;;
1344;SDS011;15375;48.540;9.268;2023-06-22T06:23:41;11.03;;;9.67;;
1344;SDS011;15375;48.540;9.268;2023-06-22T06:26:07;10.97;;;9.97;;
1344;SDS011;15375;48.540;9.268;2023-06-22T06:28:32;11.30;;;10.20;;
1344;SDS011;15375;48.540;9.268;2023-06-22T06:30:58;12.30;;;11.13;;
1344;SDS011;15375;48.540;9.268;2023-06-22T06:33:24;11.67;;;10.53;;
1344;SDS011;15375;48.540;9.268;2023-06-22T06:35:49;12.17;;;10.90;;
1344;SDS011;15375;48.540;9.268;2023-06-22T06:38:14;11.07;;;10.00;;
1344;SDS011;15375;48.540;9.268;2023-06-22T06:40:40;15.07;;;11.60;;
1344;SDS011;15375;48.540;9.268;2023-06-22T06:43:06;11.87;;;10.97;;
1344;SDS011;15375;48.540;9.268;2023-06-22T06:45:31;12.93;;;11.73;;
1344;SDS011;15375;48.540;9.268;2023-06-22T06:47:58;11.87;;;10.30;;
1344;SDS011;15375;48.540;9.268;2023-06-22T06:50:23;10.87;;;9.77;;
1344;SDS011;15375;48.540;9.268;2023-06-22T06:52:49;11.40;;;10.30;;
1344;SDS011;15375;48.540;9.268;2023-06-22T06:55:15;13.50;;;10.67;;
1344;SDS011;15375;48.540;9.268;2023-06-22T06:57:41;10.10;;;9.20;;
1344;SDS011;15375;48.540;9.268;2023-06-22T07:00:08;10.77;;;9.83;;
1344;SDS011;15375;48.540;9.268;2023-06-22T07:02:40;10.37;;;9.33;;
1344;SDS011;15375;48.540;9.268;2023-06-22T07:05:07;15.00;;;9.70;;
1344;SDS011;15375;48.540;9.268;2023-06-22T07:07:34;8.77;;;7.90;;
1344;SDS011;15375;48.540;9.268;2023-06-22T07:10:00;13.53;;;10.57;;
1344;SDS011;15375;48.540;9.268;2023-06-22T07:12:25;11.67;;;9.27;;
1344;SDS011;15375;48.540;9.268;2023-06-22T07:14:56;10.17;;;9.20;;
1344;SDS011;15375;48.540;9.268;2023-06-22T07:17:27;11.37;;;9.30;;
1344;SDS011;15375;48.540;9.268;2023-06-22T07:19:52;11.00;;;10.00;;
1344;SDS011;15375;48.540;9.268;2023-06-22T07:22:17;10.30;;;9.27;;
1344;SDS011;15375;48.540;9.268;2023-06-22T07:24:43;10.67;;;9.70;;
1344;SDS011;15375;48.540;9.268;2023-06-22T07:27:08;11.27;;;9.50;;
1344;SDS011;15375;48.540;9.268;2023-06-22T07:29:36;9.33;;;8.40;;
1344;SDS011;15375;48.540;9.268;2023-06-22T07:32:01;11.33;;;9.50;;
1344;SDS011;15375;48.540;9.268;2023-06-22T07:34:29;11.37;;;9.57;;
1344;SDS011;15375;48.540;9.268;2023-06-22T07:36:55;12.03;;;9.70;;
1344;SDS011;15375;48.540;9.268;2023-06-22T07:39:20;14.23;;;9.10;;
1344;SDS011;15375;48.540;9.268;2023-06-22T07:41:50;8.73;;;7.93;;
1344;SDS011;15375;48.540;9.268;2023-06-22T07:44:16;11.43;;;8.07;;
1344;SDS011;15375;48.540;9.268;2023-06-22T07:46:41;9.63;;;7.90;;
1344;SDS011;15375;48.540;9.268;2023-06-22T07:49:07;11.67;;;8.30;;
1344;SDS011;15375;48.540;9.268;2023-06-22T07:51:33;10.13;;;7.57;;
1344;SDS011;15375;48.540;9.268;2023-06-22T07:53:59;8.87;;;7.97;;
1344;SDS011;15375;48.540;9.268;2023-06-22T07:56:24;9.10;;;7.30;;
1344;SDS011;15375;48.540;9.268;2023-06-22T07:58:50;8.03;;;7.07;;
1344;SDS011;15375;48.540;9.268;2023-06-22T08:01:15;12.10;;;8.10;;
1344;SDS011;15375;48.540;9.268;2023-06-22T08:03:41;8.13;;;7.33;;
1344;SDS011;15375;48.540;9.268;2023-06-22T08:06:07;8.20;;;7.40;;
1344;SDS011;15375;48.540;9.268;2023-06-22T08:08:34;14.03;;;7.77;;
1344;SDS011;15375;48.540;9.268;2023-06-22T08:10:59;9.10;;;7.13;;
1344;SDS011;15375;48.540;9.268;2023-06-22T08:13:25;8.60;;;7.80;;
1344;SDS011;15375;48.540;9.268;2023-06-22T08:15:50;9.00;;;8.10;;
1344;SDS011;15375;48.540;9.268;2023-06-22T08:18:15;12.57;;;7.40;;
1344;SDS011;15375;48.540;9.268;2023-06-22T08:20:41;8.50;;;7.77;;
1344;SDS011;15375;48.540;9.268;2023-06-22T08:23:07;8.77;;;7.80;;
1344;SDS011;15375;48.540;9.268;2023-06-22T08:25:32;7.60;;;6.80;;
1344;SDS011;15375;48.540;9.268;2023-06-22T08:27:59;9.83;;;7.60;;
1344;SDS011;15375;48.540;9.268;2023-06-22T08:30:24;7.93;;;7.13;;
1344;SDS011;15375;48.540;9.268;2023-06-22T08:32:49;9.53;;;7.67;;
1344;SDS011;15375;48.540;9.268;2023-06-22T08:35:15;11.70;;;7.53;;
1344;SDS011;15375;48.540;9.268;2023-06-22T08:37:40;10.33;;;7.57;;
1344;SDS011;15375;48.540;9.268;2023-06-22T08:40:07;12.73;;;8.57;;
1344;SDS011;15375;48.540;9.268;2023-06-22T08:42:34;10.40;;;8.10;;
1344;SDS011;15375;48.540;9.268;2023-06-22T08:45:03;10.20;;;8.60;;
1344;SDS011;15375;48.540;9.268;2023-06-22T08:47:29;9.97;;;8.07;;
1344;SDS011;15375;48.540;9.268;2023-06-22T08:49:54;11.70;;;7.53;;
1344;SDS011;15375;48.540;9.268;2023-06-22T08:52:20;9.73;;;8.43;;
1344;SDS011;15375;48.540;9.268;2023-06-22T08:54:45;12.93;;;7.90;;
1344;SDS011;15375;48.540;9.268;2023-06-22T08:57:11;7.77;;;7.07;;
1344;SDS011;15375;48.540;9.268;2023-06-22T08:59:37;8.70;;;7.80;;
1344;SDS011;15375;48.540;9.268;2023-06-22T09:02:02;11.80;;;8.30;;
1344;SDS011;15375;48.540;9.268;2023-06-22T09:04:27;8.23;;;7.43;;
1344;SDS011;15375;48.540;9.268;2023-06-22T09:06:53;10.20;;;7.80;;
1344;SDS011;15375;48.540;9.268;2023-06-22T09:09:18;13.00;;;8.00;;
1344;SDS011;15375;48.540;9.268;2023-06-22T09:11:44;10.40;;;9.20;;
1344;SDS011;15375;48.540;9.268;2023-06-22T09:14:10;8.60;;;7.30;;
1344;SDS011;15375;48.540;9.268;2023-06-22T09:16:36;10.50;;;9.40;;
1344;SDS011;15375;48.540;9.268;2023-06-22T09:19:01;10.93;;;9.73;;
1344;SDS011;15375;48.540;9.268;2023-06-22T09:21:26;16.17;;;8.10;;
1344;SDS011;15375;48.540;9.268;2023-06-22T09:23:52;11.03;;;8.00;;
1344;SDS011;15375;48.540;9.268;2023-06-22T09:26:18;9.00;;;8.10;;
1344;SDS011;15375;48.540;9.268;2023-06-22T09:28:43;10.03;;;9.10;;
1344;SDS011;15375;48.540;9.268;2023-06-22T09:31:09;10.53;;;8.97;;
1344;SDS011;15375;48.540;9.268;2023-06-22T09:33:35;11.73;;;8.10;;
1344;SDS011;15375;48.540;9.268;2023-06-22T09:36:01;11.53;;;7.97;;
1344;SDS011;15375;48.540;9.268;2023-06-22T09:38:26;10.40;;;8.77;;
1344;SDS011;15375;48.540;9.268;2023-06-22T09:40:52;10.40;;;9.40;;
1344;SDS011;15375;48.540;9.268;2023-06-22T09:43:17;11.93;;;8.87;;
1344;SDS011;15375;48.540;9.268;2023-06-22T09:45:42;12.17;;;9.13;;
1344;SDS011;15375;48.540;9.268;2023-06-22T09:48:08;10.90;;;8.90;;
1344;SDS011;15375;48.540;9.268;2023-06-22T09:50:34;10.40;;;8.40;;
1344;SDS011;15375;48.540;9.268;2023-06-22T09:53:00;9.90;;;8.10;;
1344;SDS011;15375;48.540;9.268;2023-06-22T09:55:25;9.67;;;8.40;;
1344;SDS011;15375;48.540;9.268;2023-06-22T09:57:51;8.77;;;7.90;;
1344;SDS011;15375;48.540;9.268;2023-06-22T10:00:16;10.10;;;9.10;;
1344;SDS011;15375;48.540;9.268;2023-06-22T10:02:43;16.40;;;9.20;;
1344;SDS011;15375;48.540;9.268;2023-06-22T10:05:09;11.80;;;9.10;;
1344;SDS011;15375;48.540;9.268;2023-06-22T10:07:35;10.40;;;9.40;;
1344;SDS011;15375;48.540;9.268;2023-06-22T10:10:05;9.83;;;8.37;;
1344;SDS011;15375;48.540;9.268;2023-06-22T10:12:31;11.97;;;9.60;;
1344;SDS011;15375;48.540;9.268;2023-06-22T10:14:56;11.53;;;8.47;;
1344;SDS011;15375;48.540;9.268;2023-06-22T10:17:22;11.93;;;9.17;;
1344;SDS011;15375;48.540;9.268;2023-06-22T10:19:47;11.20;;;9.00;;
1344;SDS011;15375;48.540;9.268;2023-06-22T10:22:12;12.03;;;10.10;;
1344;SDS011;15375;48.540;9.268;2023-06-22T10:24:38;11.90;;;9.30;;
1344;SDS011;15375;48.540;9.268;2023-06-22T10:27:09;9.33;;;8.40;;
1344;SDS011;15375;48.540;9.268;2023-06-22T10:29:35;10.20;;;9.07;;
1344;SDS011;15375;48.540;9.268;2023-06-22T10:32:00;11.33;;;8.83;;
1344;SDS011;15375;48.540;9.268;2023-06-22T10:34:25;12.10;;;9.43;;
1344;SDS011;15375;48.540;9.268;2023-06-22T10:36:51;10.67;;;9.53;;
1344;SDS011;15375;48.540;9.268;2023-06-22T10:39:16;11.20;;;9.00;;
1344;SDS011;15375;48.540;9.268;2023-06-22T10:41:41;12.30;;;9.50;;
1344;SDS011;15375;48.540;9.268;2023-06-22T10:44:07;11.40;;;9.03;;
1344;SDS011;15375;48.540;9.268;2023-06-22T10:46:32;9.23;;;8.03;;
1344;SDS011;15375;48.540;9.268;2023-06-22T10:48:58;8.50;;;7.70;;
1344;SDS011;15375;48.540;9.268;2023-06-22T10:51:24;10.00;;;8.63;;
1344;SDS011;15375;48.540;9.268;2023-06-22T10:53:50;10.87;;;9.37;;
1344;SDS011;15375;48.540;9.268;2023-06-22T10:56:16;10.37;;;8.93;;
1344;SDS011;15375;48.540;9.268;2023-06-22T10:58:42;9.53;;;8.53;;
1344;SDS011;15375;48.540;9.268;2023-06-22T11:01:08;11.73;;;9.37;;
1344;SDS011;15375;48.540;9.268;2023-06-22T11:03:33;17.40;;;8.83;;
1344;SDS011;15375;48.540;9.268;2023-06-22T11:05:58;13.53;;;9.23;;
1344;SDS011;15375;48.540;9.268;2023-06-22T11:08:24;10.57;;;8.47;;
1344;SDS011;15375;48.540;9.268;2023-06-22T11:10:50;11.67;;;8.40;;
1344;SDS011;15375;48.540;9.268;2023-06-22T11:13:16;11.63;;;9.43;;
1344;SDS011;15375;48.540;9.268;2023-06-22T11:15:41;13.87;;;9.47;;
1344;SDS011;15375;48.540;9.268;2023-06-22T11:18:07;9.40;;;7.87;;
1344;SDS011;15375;48.540;9.268;2023-06-22T11:20:33;13.03;;;9.03;;
1344;SDS011;15375;48.540;9.268;2023-06-22T11:23:03;14.17;;;8.93;;
1344;SDS011;15375;48.540;9.268;2023-06-22T11:25:31;12.23;;;8.83;;
1344;SDS011;15375;48.540;9.268;2023-06-22T11:27:59;9.27;;;8.07;;
1344;SDS011;15375;48.540;9.268;2023-06-22T11:30:26;10.80;;;8.23;;
1344;SDS011;15375;48.540;9.268;2023-06-22T11:32:52;17.43;;;9.70;;
1344;SDS011;15375;48.540;9.268;2023-06-22T11:35:17;15.60;;;8.70;;
1344;SDS011;15375;48.540;9.268;2023-06-22T11:37:43;14.37;;;8.23;;
1344;SDS011;15375;48.540;9.268;2023-06-22T11:40:08;11.53;;;9.30;;
1344;SDS011;15375;48.540;9.268;2023-06-22T11:42:34;10.13;;;8.70;;
1344;SDS011;15375;48.540;9.268;2023-06-22T11:45:00;13.33;;;8.70;;
1344;SDS011;15375;48.540;9.268;2023-06-22T11:47:25;15.30;;;9.37;;
1344;SDS011;15375;48.540;9.268;2023-06-22T11:49:51;11.97;;;9.07;;
1344;SDS011;15375;48.540;9.268;2023-06-22T11:52:16;10.50;;;9.07;;
1344;SDS011;15375;48.540;9.268;2023-06-22T11:54:42;11.33;;;8.90;;
1344;SDS011;15375;48.540;9.268;2023-06-22T11:57:08;9.37;;;8.57;;
1344;SDS011;15375;48.540;9.268;2023-06-22T11:59:33;13.97;;;9.23;;
1344;SDS011;15375;48.540;9.268;2023-06-22T12:01:59;10.37;;;9.20;;
1344;SDS011;15375;48.540;9.268;2023-06-22T12:04:24;12.00;;;9.17;;
1344;SDS011;15375;48.540;9.268;2023-06-22T12:06:49;9.90;;;8.63;;
1344;SDS011;15375;48.540;9.268;2023-06-22T12:09:15;12.00;;;8.90;;
1344;SDS011;15375;48.540;9.268;2023-06-22T12:11:40;10.93;;;9.50;;
1344;SDS011;15375;48.540;9.268;2023-06-22T12:14:06;11.83;;;8.00;;
1344;SDS011;15375;48.540;9.268;2023-06-22T12:16:31;13.97;;;10.23;;
1344;SDS011;15375;48.540;9.268;2023-06-22T12:18:57;14.70;;;9.40;;
1344;SDS011;15375;48.540;9.268;2023-06-22T12:21:22;13.10;;;8.63;;
1344;SDS011;15375;48.540;9.268;2023-06-22T12:23:47;14.83;;;9.07;;
1344;SDS011;15375;48.540;9.268;2023-06-22T12:26:13;10.20;;;9.10;;
1344;SDS011;15375;48.540;9.268;2023-06-22T12:28:38;12.07;;;9.33;;
1344;SDS011;15375;48.540;9.268;2023-06-22T12:31:03;13.90;;;9.93;;
1344;SDS011;15375;48.540;9.268;2023-06-22T12:33:29;9.57;;;8.57;;
1344;SDS011;15375;48.540;9.268;2023-06-22T12:35:55;11.23;;;8.60;;
1344;SDS011;15375;48.540;9.268;2023-06-22T12:38:21;9.93;;;8.93;;
1344;SDS011;15375;48.540;9.268;2023-06-22T12:40:46;10.90;;;9.07;;
1344;SDS011;15375;48.540;9.268;2023-06-22T12:43:12;14.13;;;8.63;;
1344;SDS011;15375;48.540;9.268;2023-06-22T12:45:37;11.30;;;8.20;;
1344;SDS011;15375;48.540;9.268;2023-06-22T12:48:03;12.47;;;9.50;;
1344;SDS011;15375;48.540;9.268;2023-06-22T12:50:28;14.80;;;8.70;;
1344;SDS011;15375;48.540;9.268;2023-06-22T12:52:54;14.93;;;8.83;;
1344;SDS011;15375;48.540;9.268;2023-06-22T12:55:19;17.20;;;8.47;;
1344;SDS011;15375;48.540;9.268;2023-06-22T12:57:44;14.60;;;9.00;;
1344;SDS011;15375;48.540;9.268;2023-06-22T13:00:10;10.03;;;8.17;;
1344;SDS011;15375;48.540;9.268;2023-06-22T13:02:36;14.93;;;9.27;;
1344;SDS011;15375;48.540;9.268;2023-06-22T13:05:02;14.33;;;9.40;;
1344;SDS011;15375;48.540;9.268;2023-06-22T13:07:27;13.00;;;9.13;;
1344;SDS011;15375;48.540;9.268;2023-06-22T13:09:53;13.03;;;8.50;;
1344;SDS011;15375;48.540;9.268;2023-06-22T13:12:19;16.07;;;9.20;;
1344;SDS011;15375;48.540;9.268;2023-06-22T13:14:45;12.53;;;9.13;;
1344;SDS011;15375;48.540;9.268;2023-06-22T13:17:11;10.67;;;8.90;;
1344;SDS011;15375;48.540;9.268;2023-06-22T13:19:37;10.63;;;9.03;;
1344;SDS011;15375;48.540;9.268;2023-06-22T13:22:03;12.63;;;8.40;;
1344;SDS011;15375;48.540;9.268;2023-06-22T13:24:29;11.30;;;8.23;;
1344;SDS011;15375;48.540;9.268;2023-06-22T13:26:54;10.00;;;8.90;;
1344;SDS011;15375;48.540;9.268;2023-06-22T13:29:20;11.77;;;8.77;;
1344;SDS011;15375;48.540;9.268;2023-06-22T13:31:45;18.40;;;10.47;;
1344;SDS011;15375;48.540;9.268;2023-06-22T13:34:10;12.90;;;9.37;;
1344;SDS011;15375;48.540;9.268;2023-06-22T13:36:36;10.50;;;8.63;;
1344;SDS011;15375;48.540;9.268;2023-06-22T13:39:02;11.90;;;9.27;;
1344;SDS011;15375;48.540;9.268;2023-06-22T13:41:27;9.17;;;8.20;;
1344;SDS011;15375;48.540;9.268;2023-06-22T13:43:53;13.73;;;8.60;;
1344;SDS011;15375;48.540;9.268;2023-06-22T13:46:18;11.07;;;8.83;;
1344;SDS011;15375;48.540;9.268;2023-06-22T13:48:43;13.80;;;8.83;;
1344;SDS011;15375;48.540;9.268;2023-06-22T13:51:09;11.87;;;8.70;;
1344;SDS011;15375;48.540;9.268;2023-06-22T13:53:34;13.70;;;9.10;;
1344;SDS011;15375;48.540;9.268;2023-06-22T13:55:59;13.63;;;8.87;;
1344;SDS011;15375;48.540;9.268;2023-06-22T13:58:25;13.33;;;8.53;;
1344;SDS011;15375;48.540;9.268;2023-06-22T14:00:50;15.00;;;8.67;;
1344;SDS011;15375;48.540;9.268;2023-06-22T14:03:16;12.80;;;8.70;;
1344;SDS011;15375;48.540;9.268;2023-06-22T14:05:41;10.83;;;8.17;;
1344;SDS011;15375;48.540;9.268;2023-06-22T14:08:07;14.43;;;9.20;;
1344;SDS011;15375;48.540;9.268;2023-06-22T14:10:33;9.40;;;8.50;;
1344;SDS011;15375;48.540;9.268;2023-06-22T14:12:58;12.40;;;8.40;;
1344;SDS011;15375;48.540;9.268;2023-06-22T14:15:25;13.10;;;10.23;;
1344;SDS011;15375;48.540;9.268;2023-06-22T14:17:50;19.93;;;9.00;;
1344;SDS011;15375;48.540;9.268;2023-06-22T14:20:16;15.70;;;9.17;;
1344;SDS011;15375;48.540;9.268;2023-06-22T14:22:41;10.80;;;9.50;;
1344;SDS011;15375;48.540;9.268;2023-06-22T14:25:07;14.50;;;8.57;;
1344;SDS011;15375;48.540;9.268;2023-06-22T14:27:32;10.03;;;8.80;;
1344;SDS011;15375;48.540;9.268;2023-06-22T14:29:58;11.50;;;8.57;;
1344;SDS011;15375;48.540;9.268;2023-06-22T14:32:23;11.27;;;8.20;;
1344;SDS011;15375;48.540;9.268;2023-06-22T14:34:49;11.87;;;9.00;;
1344;SDS011;15375;48.540;9.268;2023-06-22T14:37:15;18.07;;;9.10;;
1344;SDS011;15375;48.540;9.268;2023-06-22T14:39:40;12.73;;;9.17;;
1344;SDS011;15375;48.540;9.268;2023-06-22T14:42:08;10.00;;;9.00;;